Time;durP1;ratioP1;P1;durP2;ratioP2;P2;SDS_P1;SDS_P2;PMS_P1;PMS_P2;Temp;Humidity;BMP_temperature;BMP_pressure;BME280_temperature;BME280_humidity;BME280_pressure;Samples;Min_cycle;Max_cycle;Signal;HPM_P1;HPM_P2
2023/04/04 00:00:36;;;;;;;5.93;4.33;;;1.30;99.90;;;;;;5014087;28;20486;-66
2023/04/04 00:03:04;;;;;;;4.63;4.13;;;1.30;99.90;;;;;;5026883;28;20466;-66
2023/04/04 00:05:34;;;;;;;6.20;4.20;;;1.30;99.90;;;;;;5025346;28;21253;-68
2023/04/04 00:08:02;;;;;;;6.27;4.23;;;1.20;99.90;;;;;;5020871;28;20813;-65
2023/04/04 00:10:31;;;;;;;8.27;4.30;;;1.20;99.90;;;;;;5026734;28;20491;-66
2023/04/04 00:13:00;;;;;;;4.50;3.73;;;1.20;99.90;;;;;;5019387;28;20549;-67
2023/04/04 00:15:28;;;;;;;5.23;3.70;;;1.20;99.90;;;;;;5026085;28;20467;-66
2023/04/04 00:17:55;;;;;;;7.70;3.37;;;1.20;99.90;;;;;;5022166;28;20506;-65
2023/04/04 00:20:24;;;;;;;7.00;3.50;;;1.20;99.90;;;;;;5015291;28;20487;-66
2023/04/04 00:22:52;;;;;;;5.50;3.80;;;1.20;99.90;;;;;;5023408;28;20982;-66
2023/04/04 00:25:19;;;;;;;4.13;3.73;;;1.10;99.90;;;;;;5025674;28;20490;-66
2023/04/04 00:27:49;;;;;;;5.40;3.67;;;1.10;99.90;;;;;;5016688;28;20841;-66
2023/04/04 00:30:17;;;;;;;4.77;3.10;;;1.10;99.90;;;;;;5021950;28;20490;-66
2023/04/04 00:32:45;;;;;;;5.80;3.83;;;1.10;99.90;;;;;;5017761;28;21023;-66
2023/04/04 00:35:13;;;;;;;4.83;3.80;;;1.00;99.90;;;;;;5014878;28;20975;-66
2023/04/04 00:37:41;;;;;;;3.73;3.20;;;1.00;99.90;;;;;;5018492;28;20476;-66
2023/04/04 00:40:09;;;;;;;3.60;3.20;;;1.00;99.90;;;;;;5016873;28;21122;-66
2023/04/04 00:42:37;;;;;;;4.90;3.50;;;1.00;99.90;;;;;;5011084;28;20475;-66
2023/04/04 00:45:08;;;;;;;4.20;3.80;;;1.00;99.90;;;;;;5019163;28;20475;-67
2023/04/04 00:47:37;;;;;;;4.27;3.47;;;1.00;99.90;;;;;;5017564;28;20524;-68
2023/04/04 00:50:07;;;;;;;5.40;3.80;;;0.90;99.90;;;;;;5013471;28;20491;-67
2023/04/04 00:52:36;;;;;;;5.47;3.60;;;0.90;99.90;;;;;;5019507;28;20492;-67
2023/04/04 00:55:05;;;;;;;4.13;3.43;;;0.90;99.90;;;;;;5012346;28;20589;-66
2023/04/04 00:57:34;;;;;;;5.37;3.57;;;0.80;99.90;;;;;;5017113;28;20471;-66
2023/04/04 01:00:05;;;;;;;4.60;3.37;;;0.80;99.90;;;;;;5020669;28;20504;-67
2023/04/04 01:02:35;;;;;;;3.67;3.17;;;0.80;99.90;;;;;;5011225;28;20467;-66
2023/04/04 01:05:04;;;;;;;6.10;3.57;;;0.80;99.90;;;;;;5018875;28;20471;-66
2023/04/04 01:07:32;;;;;;;4.70;3.40;;;0.80;99.90;;;;;;5020735;28;20475;-67
2023/04/04 01:10:02;;;;;;;4.10;3.70;;;0.80;99.90;;;;;;5018153;28;20553;-67
2023/04/04 01:12:31;;;;;;;4.90;3.60;;;0.80;99.90;;;;;;5016973;28;20869;-67
2023/04/04 01:14:59;;;;;;;4.27;3.53;;;0.80;99.90;;;;;;5028617;28;20471;-67
2023/04/04 01:17:27;;;;;;;3.47;3.17;;;0.70;99.90;;;;;;5020418;28;20463;-67
2023/04/04 01:20:04;;;;;;;4.57;4.17;;;0.70;99.90;;;;;;5018084;28;20583;-67
2023/04/04 01:22:34;;;;;;;3.60;3.10;;;0.70;99.90;;;;;;5018723;28;20983;-67
2023/04/04 01:25:04;;;;;;;5.23;4.00;;;0.70;99.90;;;;;;5014722;28;20471;-67
2023/04/04 01:27:33;;;;;;;5.27;3.60;;;0.70;99.90;;;;;;5014995;28;20873;-66
2023/04/04 01:30:02;;;;;;;5.77;3.47;;;0.60;99.90;;;;;;5019054;28;20483;-67
2023/04/04 01:32:41;;;;;;;4.87;3.67;;;0.60;99.90;;;;;;5017067;28;21080;-67
2023/04/04 01:35:26;;;;;;;4.70;3.37;;;0.60;99.90;;;;;;5016487;28;20557;-67
2023/04/04 01:38:06;;;;;;;3.83;3.00;;;0.60;99.90;;;;;;5018668;28;20843;-68
2023/04/04 01:40:36;;;;;;;5.03;3.10;;;0.50;99.90;;;;;;5017704;28;21005;-68
2023/04/04 01:43:06;;;;;;;4.93;3.50;;;0.50;99.90;;;;;;5016093;28;20467;-68
2023/04/04 01:45:34;;;;;;;4.03;3.33;;;0.50;99.90;;;;;;5010248;28;20927;-68
2023/04/04 01:48:02;;;;;;;3.30;3.00;;;0.50;99.90;;;;;;5010837;28;20553;-68
2023/04/04 01:50:30;;;;;;;5.60;3.57;;;0.50;99.90;;;;;;5009297;28;21026;-68
2023/04/04 01:52:59;;;;;;;4.10;3.53;;;0.50;99.90;;;;;;5013536;28;20483;-68
2023/04/04 01:55:28;;;;;;;4.30;3.23;;;0.50;99.90;;;;;;5014246;28;20899;-68
2023/04/04 01:57:56;;;;;;;4.47;3.17;;;0.50;99.90;;;;;;5018809;28;21010;-68
2023/04/04 02:00:26;;;;;;;3.90;3.50;;;0.50;99.90;;;;;;5017596;28;20498;-68
2023/04/04 02:02:54;;;;;;;3.83;2.90;;;0.50;99.90;;;;;;5016085;28;20844;-68
2023/04/04 02:05:22;;;;;;;3.93;3.40;;;0.50;99.90;;;;;;5013388;28;20479;-68
2023/04/04 02:07:50;;;;;;;3.83;2.97;;;0.40;99.90;;;;;;5009280;28;20732;-68
2023/04/04 02:10:18;;;;;;;4.50;3.43;;;0.40;99.90;;;;;;5012895;28;20880;-68
2023/04/04 02:12:46;;;;;;;4.07;3.17;;;0.50;99.90;;;;;;5009391;28;20495;-68
2023/04/04 02:15:14;;;;;;;4.40;3.63;;;0.50;99.90;;;;;;5022001;28;21300;-68
2023/04/04 02:17:47;;;;;;;6.27;3.17;;;0.50;99.90;;;;;;5017310;28;20479;-68
2023/04/04 02:20:18;;;;;;;4.10;3.70;;;0.50;99.90;;;;;;5018877;28;21195;-68
2023/04/04 02:22:51;;;;;;;4.20;3.27;;;0.50;99.90;;;;;;5018649;28;20550;-68
2023/04/04 02:25:20;;;;;;;3.47;3.17;;;0.50;99.90;;;;;;5015026;28;20475;-68
2023/04/04 02:27:48;;;;;;;3.50;2.97;;;0.40;99.90;;;;;;5019740;28;20980;-67
2023/04/04 02:30:16;;;;;;;4.27;3.43;;;0.40;99.90;;;;;;5022724;28;20499;-67
2023/04/04 02:32:45;;;;;;;3.80;3.50;;;0.40;99.90;;;;;;5019641;28;20495;-67
2023/04/04 02:35:14;;;;;;;3.80;3.50;;;0.40;99.90;;;;;;5015960;28;20471;-67
2023/04/04 02:37:45;;;;;;;4.43;3.63;;;0.30;99.90;;;;;;5017394;28;20498;-67
2023/04/04 02:40:13;;;;;;;4.73;3.07;;;0.40;99.90;;;;;;5016996;28;20502;-67
2023/04/04 02:42:44;;;;;;;4.77;3.40;;;0.40;99.90;;;;;;5016767;28;20975;-67
2023/04/04 02:45:13;;;;;;;4.50;3.50;;;0.40;99.90;;;;;;5025585;28;20471;-67
2023/04/04 02:47:42;;;;;;;4.43;3.30;;;0.40;99.90;;;;;;5019622;28;20475;-67
2023/04/04 02:50:11;;;;;;;5.30;3.80;;;0.40;99.90;;;;;;5018425;28;20914;-67
2023/04/04 02:52:39;;;;;;;4.30;3.20;;;0.40;99.90;;;;;;5019563;28;20475;-68
2023/04/04 02:55:08;;;;;;;5.50;3.87;;;0.40;99.90;;;;;;5024313;28;20482;-67
2023/04/04 02:57:36;;;;;;;4.57;4.00;;;0.30;99.90;;;;;;5025182;28;20471;-67
2023/04/04 03:00:05;;;;;;;4.00;3.30;;;0.30;99.90;;;;;;5025054;28;20502;-68
2023/04/04 03:02:34;;;;;;;5.93;4.00;;;0.30;99.90;;;;;;5018924;28;20478;-68
2023/04/04 03:05:02;;;;;;;4.23;3.40;;;0.40;99.90;;;;;;5023574;28;20466;-68
2023/04/04 03:07:31;;;;;;;5.63;3.87;;;0.40;99.90;;;;;;5022938;28;20471;-66
2023/04/04 03:09:59;;;;;;;4.77;3.90;;;0.30;99.90;;;;;;5027455;28;20486;-68
2023/04/04 03:12:27;;;;;;;5.70;3.40;;;0.30;99.90;;;;;;5018875;28;20475;-68
2023/04/04 03:14:55;;;;;;;4.50;3.80;;;0.30;99.90;;;;;;5028440;28;20491;-68
2023/04/04 03:17:23;;;;;;;4.10;3.20;;;0.30;99.90;;;;;;5039601;28;20467;-68
2023/04/04 03:19:51;;;;;;;4.53;3.30;;;0.30;99.90;;;;;;5048430;28;20471;-69
2023/04/04 03:22:19;;;;;;;3.63;3.27;;;0.30;99.90;;;;;;5043005;28;20481;-69
2023/04/04 03:24:48;;;;;;;5.97;4.03;;;0.30;99.90;;;;;;5031901;28;20486;-68
2023/04/04 03:27:16;;;;;;;5.67;3.40;;;0.30;99.90;;;;;;5024994;28;20525;-68
2023/04/04 03:29:44;;;;;;;5.97;3.90;;;0.30;99.90;;;;;;5029400;28;20486;-68
2023/04/04 03:32:12;;;;;;;4.17;3.27;;;0.40;99.90;;;;;;5023318;28;20478;-68
2023/04/04 03:34:40;;;;;;;4.73;3.33;;;0.40;99.90;;;;;;5023657;28;20561;-69
2023/04/04 03:37:08;;;;;;;3.50;3.17;;;0.40;99.90;;;;;;5021555;28;20474;-68
2023/04/04 03:39:37;;;;;;;4.20;3.60;;;0.40;99.90;;;;;;5025344;28;20495;-68
2023/04/04 03:42:06;;;;;;;4.53;3.83;;;0.40;99.90;;;;;;5020881;28;20888;-68
2023/04/04 03:44:35;;;;;;;5.33;4.30;;;0.40;99.90;;;;;;5027985;28;20468;-68
2023/04/04 03:47:03;;;;;;;5.57;4.40;;;0.40;99.90;;;;;;5026384;28;21021;-68
2023/04/04 03:49:31;;;;;;;4.97;3.70;;;0.40;99.90;;;;;;5018102;28;20491;-68
2023/04/04 03:52:01;;;;;;;4.77;3.60;;;0.30;99.90;;;;;;5026377;28;20486;-68
2023/04/04 03:54:29;;;;;;;5.10;3.90;;;0.30;99.90;;;;;;5024459;28;20621;-68
2023/04/04 03:56:57;;;;;;;4.37;3.97;;;0.40;99.90;;;;;;5024232;28;20470;-68
2023/04/04 03:59:26;;;;;;;7.67;3.60;;;0.30;99.90;;;;;;5023603;28;20495;-68
2023/04/04 04:01:55;;;;;;;6.47;3.80;;;0.40;99.90;;;;;;5022446;28;20573;-69
2023/04/04 04:04:23;;;;;;;4.93;3.63;;;0.40;99.90;;;;;;5026098;28;20476;-68
2023/04/04 04:06:51;;;;;;;4.10;3.70;;;0.40;99.90;;;;;;5024881;28;20479;-68
2023/04/04 04:09:19;;;;;;;6.97;3.90;;;0.40;99.90;;;;;;5019006;28;20494;-68
2023/04/04 04:11:47;;;;;;;6.13;3.60;;;0.40;99.90;;;;;;5021550;28;20525;-68
2023/04/04 04:14:15;;;;;;;4.37;3.73;;;0.40;99.90;;;;;;5013999;28;20488;-68
2023/04/04 04:16:44;;;;;;;3.97;3.07;;;0.30;99.90;;;;;;5015695;28;20491;-68
2023/04/04 04:19:12;;;;;;;3.83;3.43;;;0.30;99.90;;;;;;5006589;28;20508;-68
2023/04/04 04:21:41;;;;;;;4.77;3.60;;;0.40;99.90;;;;;;5026122;28;20471;-68
2023/04/04 04:24:09;;;;;;;4.83;3.37;;;0.40;99.90;;;;;;5025929;28;21028;-68
2023/04/04 04:26:37;;;;;;;5.40;3.67;;;0.40;99.90;;;;;;5017596;28;20542;-68
2023/04/04 04:29:06;;;;;;;5.00;3.80;;;0.40;99.90;;;;;;5003056;28;20495;-68
2023/04/04 04:31:34;;;;;;;4.47;3.80;;;0.40;99.90;;;;;;5014011;28;20482;-68
2023/04/04 04:34:07;;;;;;;3.50;3.20;;;0.40;99.90;;;;;;5010333;28;20491;-68
2023/04/04 04:36:35;;;;;;;4.20;3.50;;;0.40;99.90;;;;;;5011822;28;20486;-68
2023/04/04 04:39:03;;;;;;;4.87;3.13;;;0.40;99.90;;;;;;5010071;28;20487;-68
2023/04/04 04:41:31;;;;;;;3.70;3.40;;;0.40;99.90;;;;;;5009765;28;20480;-68
2023/04/04 04:43:59;;;;;;;3.93;3.53;;;0.40;99.90;;;;;;5009832;28;20995;-68
2023/04/04 04:46:27;;;;;;;3.40;3.10;;;0.40;99.90;;;;;;5007107;28;20467;-68
2023/04/04 04:48:55;;;;;;;4.23;3.83;;;0.40;99.90;;;;;;5003277;28;23250;-68
2023/04/04 04:51:25;;;;;;;4.00;3.30;;;0.30;99.90;;;;;;5002479;28;20467;-67
2023/04/04 04:53:53;;;;;;;4.37;3.30;;;0.40;99.90;;;;;;5027296;28;20483;-69
2023/04/04 04:56:21;;;;;;;6.53;3.60;;;0.40;99.90;;;;;;5012878;28;21573;-68
2023/04/04 04:58:49;;;;;;;4.40;3.70;;;0.40;99.90;;;;;;5007800;28;20487;-68
2023/04/04 05:01:17;;;;;;;4.17;3.87;;;0.40;99.90;;;;;;5007401;28;21049;-68
2023/04/04 05:03:45;;;;;;;5.13;3.70;;;0.30;99.90;;;;;;5011544;28;20471;-68
2023/04/04 05:06:13;;;;;;;4.20;3.20;;;0.30;99.90;;;;;;5018169;28;20471;-68
2023/04/04 05:08:43;;;;;;;5.07;3.93;;;0.30;99.90;;;;;;5014113;28;20521;-69
2023/04/04 05:11:11;;;;;;;4.83;3.20;;;0.30;99.90;;;;;;4998386;28;21013;-68
2023/04/04 05:13:39;;;;;;;3.93;2.97;;;0.30;99.90;;;;;;5010978;28;20490;-68
2023/04/04 05:16:07;;;;;;;5.57;3.73;;;0.30;99.90;;;;;;5008512;28;20494;-68
2023/04/04 05:18:35;;;;;;;5.97;3.53;;;0.30;99.90;;;;;;5010066;28;20502;-68
2023/04/04 05:21:03;;;;;;;4.63;3.90;;;0.40;99.90;;;;;;5011036;28;20471;-68
2023/04/04 05:23:31;;;;;;;4.10;3.43;;;0.30;99.90;;;;;;5006951;28;20997;-68
2023/04/04 05:26:01;;;;;;;4.53;3.73;;;0.30;99.90;;;;;;5006814;28;20471;-67
2023/04/04 05:28:29;;;;;;;6.00;3.90;;;0.40;99.90;;;;;;5015939;28;20486;-68
2023/04/04 05:30:57;;;;;;;4.77;4.07;;;0.30;99.90;;;;;;5004476;28;20860;-68
2023/04/04 05:33:25;;;;;;;5.43;4.07;;;0.30;99.90;;;;;;5016306;28;20479;-68
2023/04/04 05:35:53;;;;;;;5.30;3.80;;;0.40;99.90;;;;;;5017612;28;21051;-68
2023/04/04 05:38:23;;;;;;;7.13;3.93;;;0.40;99.90;;;;;;5013150;28;20567;-69
2023/04/04 05:40:53;;;;;;;4.47;3.27;;;0.40;99.90;;;;;;5010679;28;20949;-68
2023/04/04 05:43:23;;;;;;;5.77;4.00;;;0.50;99.90;;;;;;5018075;28;20486;-68
2023/04/04 05:45:50;;;;;;;8.00;4.40;;;0.50;99.90;;;;;;5021611;28;20475;-68
2023/04/04 05:48:18;;;;;;;4.40;3.93;;;0.50;99.90;;;;;;5011619;28;20573;-68
2023/04/04 05:50:47;;;;;;;5.00;4.27;;;0.50;99.90;;;;;;5019708;28;20856;-68
2023/04/04 05:53:15;;;;;;;7.53;4.20;;;0.60;99.90;;;;;;5020233;28;20528;-68
2023/04/04 05:55:43;;;;;;;4.37;3.77;;;0.60;99.90;;;;;;5019271;28;20499;-68
2023/04/04 05:58:11;;;;;;;4.50;4.10;;;0.60;99.90;;;;;;5026087;28;20475;-68
2023/04/04 06:00:42;;;;;;;4.60;4.20;;;0.70;99.90;;;;;;5016596;28;21045;-68
2023/04/04 06:03:11;;;;;;;7.70;3.93;;;0.70;99.90;;;;;;5026003;28;20529;-68
2023/04/04 06:05:42;;;;;;;5.03;4.50;;;0.80;99.90;;;;;;5028168;28;20901;-68
2023/04/04 06:08:10;;;;;;;4.50;3.90;;;0.80;99.90;;;;;;5013303;28;20483;-68
2023/04/04 06:10:38;;;;;;;5.43;4.50;;;0.90;99.90;;;;;;5027671;28;20515;-68
2023/04/04 06:13:06;;;;;;;7.23;4.47;;;1.00;99.90;;;;;;5024647;28;20463;-66
2023/04/04 06:15:34;;;;;;;4.23;3.60;;;1.00;99.90;;;;;;5021626;28;20479;-67
2023/04/04 06:18:03;;;;;;;5.40;4.10;;;1.10;99.90;;;;;;5033490;28;20479;-66
2023/04/04 06:20:33;;;;;;;4.40;3.57;;;1.20;99.90;;;;;;5025322;28;20579;-68
2023/04/04 06:23:08;;;;;;;6.73;3.80;;;1.20;99.90;;;;;;5029594;28;20493;-67
2023/04/04 06:25:37;;;;;;;3.57;3.17;;;1.30;99.90;;;;;;5031721;28;20565;-67
2023/04/04 06:28:05;;;;;;;7.50;3.70;;;1.40;99.90;;;;;;5017937;28;20495;-67
2023/04/04 06:30:36;;;;;;;2.97;2.73;;;1.40;99.90;;;;;;5027942;28;20558;-67
2023/04/04 06:33:06;;;;;;;4.90;3.23;;;1.40;99.90;;;;;;5032795;28;20558;-67
2023/04/04 06:35:34;;;;;;;4.70;3.33;;;1.50;99.90;;;;;;5019487;28;20496;-67
2023/04/04 06:38:03;;;;;;;3.70;3.10;;;1.50;99.90;;;;;;5030295;28;20483;-66
2023/04/04 06:40:31;;;;;;;4.20;3.27;;;1.50;99.90;;;;;;5024341;28;21237;-67
2023/04/04 06:42:59;;;;;;;3.30;3.00;;;1.60;99.90;;;;;;5022882;28;20550;-66
2023/04/04 06:45:27;;;;;;;3.90;2.80;;;1.60;99.90;;;;;;5029596;28;20470;-67
2023/04/04 06:47:56;;;;;;;4.20;3.60;;;1.70;99.90;;;;;;5021212;28;20479;-67
2023/04/04 06:50:26;;;;;;;5.10;3.17;;;1.70;99.90;;;;;;5026239;28;20552;-67
2023/04/04 06:52:56;;;;;;;4.93;3.40;;;1.80;99.90;;;;;;5028947;28;20459;-67
2023/04/04 06:55:24;;;;;;;3.40;3.10;;;1.90;99.90;;;;;;5013983;28;20947;-67
2023/04/04 06:57:52;;;;;;;4.00;3.50;;;1.90;99.90;;;;;;5024880;28;20486;-67
2023/04/04 07:00:21;;;;;;;4.03;3.30;;;1.90;99.90;;;;;;5028105;28;20486;-67
2023/04/04 07:02:49;;;;;;;3.70;3.20;;;2.00;99.90;;;;;;5019480;28;20475;-67
2023/04/04 07:05:17;;;;;;;4.03;3.20;;;2.10;99.90;;;;;;5028459;28;20519;-67
2023/04/04 07:07:47;;;;;;;4.10;3.07;;;2.10;99.90;;;;;;5028130;28;20481;-67
2023/04/04 07:10:15;;;;;;;6.10;3.13;;;2.20;99.90;;;;;;5019078;28;20495;-66
2023/04/04 07:12:43;;;;;;;3.43;3.00;;;2.20;99.90;;;;;;5030116;28;20471;-67
2023/04/04 07:15:11;;;;;;;3.93;2.97;;;2.30;99.90;;;;;;5023098;28;20475;-67
2023/04/04 07:17:40;;;;;;;4.50;2.90;;;2.30;99.90;;;;;;5025893;28;20566;-66
2023/04/04 07:20:09;;;;;;;4.27;3.20;;;2.40;99.90;;;;;;5029665;28;20499;-67
2023/04/04 07:22:38;;;;;;;4.03;2.80;;;2.40;99.90;;;;;;5018946;28;20474;-67
2023/04/04 07:25:08;;;;;;;5.03;3.17;;;2.50;99.90;;;;;;5029325;28;20847;-67
2023/04/04 07:27:36;;;;;;;3.30;2.90;;;2.60;99.90;;;;;;5027925;28;20474;-67
2023/04/04 07:30:05;;;;;;;2.87;2.57;;;2.60;99.90;;;;;;5017034;28;20867;-67
2023/04/04 07:32:34;;;;;;;3.13;2.93;;;2.70;99.90;;;;;;5030114;28;20471;-67
2023/04/04 07:35:03;;;;;;;3.70;2.80;;;2.80;99.90;;;;;;5024114;28;20527;-68
2023/04/04 07:37:32;;;;;;;3.97;2.90;;;2.80;99.90;;;;;;5028796;28;20868;-67
2023/04/04 07:40:00;;;;;;;5.70;3.00;;;2.90;99.90;;;;;;5032625;28;20836;-68
2023/04/04 07:42:29;;;;;;;5.77;2.90;;;3.00;99.90;;;;;;5023516;28;20467;-67
2023/04/04 07:44:57;;;;;;;4.30;3.13;;;3.00;99.90;;;;;;5030269;28;20561;-67
2023/04/04 07:47:26;;;;;;;4.10;3.07;;;3.10;99.90;;;;;;5032088;28;20472;-67
2023/04/04 07:49:54;;;;;;;4.27;3.17;;;3.20;99.90;;;;;;5020712;28;21242;-67
2023/04/04 07:52:22;;;;;;;2.93;2.60;;;3.20;99.90;;;;;;5031688;28;20478;-67
2023/04/04 07:54:52;;;;;;;2.80;2.47;;;3.20;99.90;;;;;;5025176;28;20905;-69
2023/04/04 07:57:20;;;;;;;3.40;2.53;;;3.30;99.90;;;;;;5029488;28;20546;-67
2023/04/04 07:59:49;;;;;;;3.67;2.83;;;3.30;99.90;;;;;;5028879;28;20471;-68
2023/04/04 08:02:17;;;;;;;4.93;2.40;;;3.40;99.90;;;;;;5015487;28;20478;-68
2023/04/04 08:04:45;;;;;;;3.00;2.60;;;3.50;99.90;;;;;;5028589;28;20467;-68
2023/04/04 08:07:13;;;;;;;1.97;1.87;;;3.50;99.90;;;;;;5030406;28;20522;-68
2023/04/04 08:09:41;;;;;;;3.10;1.77;;;3.50;99.90;;;;;;5019714;28;20998;-68
2023/04/04 08:12:09;;;;;;;2.37;1.97;;;3.60;99.90;;;;;;5029405;28;20473;-68
2023/04/04 08:14:37;;;;;;;5.50;2.00;;;3.60;99.90;;;;;;5027440;28;20472;-68
2023/04/04 08:17:07;;;;;;;3.90;2.10;;;3.70;99.90;;;;;;5022637;28;20487;-68
2023/04/04 08:19:35;;;;;;;3.43;1.97;;;3.80;99.90;;;;;;5029224;28;20921;-68
2023/04/04 08:22:04;;;;;;;2.40;2.20;;;4.00;99.90;;;;;;5021679;28;20472;-68
2023/04/04 08:24:32;;;;;;;2.50;1.73;;;4.10;99.90;;;;;;5025726;28;20482;-68
2023/04/04 08:27:00;;;;;;;2.40;2.20;;;4.20;99.90;;;;;;5032034;28;20459;-69
2023/04/04 08:29:33;;;;;;;2.40;2.00;;;4.20;99.90;;;;;;5035430;28;20475;-68
2023/04/04 08:32:01;;;;;;;4.27;2.23;;;4.30;99.90;;;;;;5045558;28;20499;-68
2023/04/04 08:34:30;;;;;;;2.50;2.00;;;4.40;99.90;;;;;;5044303;28;21019;-68
2023/04/04 08:36:58;;;;;;;2.93;2.10;;;4.50;99.90;;;;;;5029843;28;20500;-69
2023/04/04 08:39:27;;;;;;;2.40;2.20;;;4.60;99.90;;;;;;5032626;28;20506;-68
2023/04/04 08:42:01;;;;;;;2.10;1.80;;;4.70;99.90;;;;;;5021620;28;20463;-68
2023/04/04 08:44:30;;;;;;;3.07;1.90;;;4.80;99.90;;;;;;5027392;28;20541;-68
2023/04/04 08:47:00;;;;;;;1.90;1.80;;;4.90;99.90;;;;;;5029411;28;20605;-68
2023/04/04 08:49:31;;;;;;;1.70;1.60;;;4.90;99.90;;;;;;5018200;28;20494;-69
2023/04/04 08:52:01;;;;;;;3.20;2.07;;;4.90;99.90;;;;;;5028431;28;20475;-68
2023/04/04 08:54:31;;;;;;;2.03;1.83;;;5.00;99.90;;;;;;5025006;28;20590;-68
2023/04/04 08:57:00;;;;;;;3.20;2.07;;;5.00;99.90;;;;;;5023788;28;20499;-68
2023/04/04 08:59:28;;;;;;;1.97;1.77;;;5.10;99.90;;;;;;5028244;28;20476;-69
2023/04/04 09:02:04;;;;;;;1.93;1.70;;;5.20;99.90;;;;;;5016908;28;20467;-69
2023/04/04 09:04:33;;;;;;;2.97;2.20;;;5.30;99.90;;;;;;5026361;28;20549;-68
2023/04/04 09:07:04;;;;;;;4.17;2.40;;;5.40;99.90;;;;;;5028954;28;20849;-68
2023/04/04 09:09:33;;;;;;;2.50;2.10;;;5.50;99.90;;;;;;5018063;28;20495;-68
2023/04/04 09:12:02;;;;;;;2.90;2.10;;;5.60;99.90;;;;;;5028522;28;20463;-68
2023/04/04 09:14:30;;;;;;;2.50;1.73;;;5.70;99.90;;;;;;5026081;28;20954;-69
2023/04/04 09:16:58;;;;;;;2.57;2.10;;;5.80;99.90;;;;;;5022081;28;20853;-69
2023/04/04 09:19:27;;;;;;;2.50;1.83;;;5.80;99.90;;;;;;5027468;28;20479;-68
2023/04/04 09:21:56;;;;;;;2.30;1.80;;;5.80;99.90;;;;;;5020297;28;20468;-69
2023/04/04 09:24:25;;;;;;;4.13;2.47;;;5.90;99.90;;;;;;5026645;28;21003;-69
2023/04/04 09:26:53;;;;;;;2.53;2.00;;;5.90;99.90;;;;;;5028746;28;20476;-69
2023/04/04 09:29:22;;;;;;;2.10;1.80;;;6.00;99.90;;;;;;5018239;28;20483;-69
2023/04/04 09:31:50;;;;;;;2.67;1.67;;;6.10;99.90;;;;;;5028233;28;21177;-69
2023/04/04 09:34:20;;;;;;;2.40;1.83;;;6.10;99.90;;;;;;5026427;28;20499;-69
2023/04/04 09:36:48;;;;;;;2.03;1.87;;;6.20;99.90;;;;;;5019785;28;20501;-68
2023/04/04 09:39:22;;;;;;;2.77;2.30;;;6.30;99.90;;;;;;5027402;28;20478;-68
2023/04/04 09:41:50;;;;;;;5.33;1.93;;;6.20;97.70;;;;;;5019952;28;20479;-68
2023/04/04 09:44:18;;;;;;;2.40;1.97;;;6.20;99.90;;;;;;5025781;28;20471;-68
2023/04/04 09:46:50;;;;;;;3.10;1.40;;;6.20;99.90;;;;;;5032100;28;20486;-68
2023/04/04 09:49:22;;;;;;;2.90;1.80;;;6.20;99.90;;;;;;5017324;28;20574;-68
2023/04/04 09:51:53;;;;;;;3.43;1.77;;;6.30;98.90;;;;;;5027705;28;20494;-70
2023/04/04 09:54:23;;;;;;;2.03;1.70;;;6.30;88.10;;;;;;5025328;28;20481;-69
2023/04/04 09:56:57;;;;;;;1.60;1.50;;;6.40;71.20;;;;;;5026120;28;20498;-69
2023/04/04 09:59:25;;;;;;;1.50;1.40;;;6.40;68.70;;;;;;5027545;28;20558;-68
2023/04/04 10:01:55;;;;;;;2.30;1.93;;;6.50;66.30;;;;;;5014727;28;20477;-68
2023/04/04 10:04:25;;;;;;;3.07;1.40;;;6.60;69.30;;;;;;5026656;28;20477;-68
2023/04/04 10:06:54;;;;;;;2.00;1.60;;;6.70;69.10;;;;;;5028473;28;20563;-68
2023/04/04 10:09:24;;;;;;;1.67;1.57;;;6.70;65.10;;;;;;5016955;28;20549;-68
2023/04/04 10:12:08;;;;;;;1.87;1.67;;;6.80;68.40;;;;;;5028034;28;20479;-68
2023/04/04 10:14:36;;;;;;;2.90;1.90;;;6.90;76.20;;;;;;5021021;28;20471;-68
2023/04/04 10:17:09;;;;;;;4.77;2.10;;;6.90;78.60;;;;;;5026490;28;20859;-68
2023/04/04 10:19:38;;;;;;;2.00;1.60;;;7.00;94.20;;;;;;5027446;28;20503;-68
2023/04/04 10:22:06;;;;;;;2.07;1.53;;;7.10;88.00;;;;;;5018760;28;20471;-68
2023/04/04 10:24:35;;;;;;;2.50;1.43;;;7.30;79.80;;;;;;5028251;28;20475;-68
2023/04/04 10:27:03;;;;;;;1.97;1.57;;;7.40;83.20;;;;;;5028518;28;20459;-68
2023/04/04 10:29:32;;;;;;;2.30;1.43;;;7.50;87.00;;;;;;5019043;28;20491;-68
2023/04/04 10:32:05;;;;;;;1.70;1.60;;;7.60;71.20;;;;;;5027916;28;20463;-68
2023/04/04 10:34:41;;;;;;;1.90;1.80;;;7.60;72.00;;;;;;5019439;28;20479;-68
2023/04/04 10:37:15;;;;;;;1.50;1.37;;;7.70;68.60;;;;;;5026049;28;20581;-68
2023/04/04 10:39:53;;;;;;;3.53;1.50;;;7.80;72.60;;;;;;5027214;28;20565;-68
2023/04/04 10:42:23;;;;;;;1.50;1.40;;;7.80;86.30;;;;;;5017791;28;20842;-67
2023/04/04 10:44:51;;;;;;;1.87;1.47;;;8.00;72.00;;;;;;5027054;28;20483;-67
2023/04/04 10:47:22;;;;;;;2.50;1.50;;;8.10;69.90;;;;;;5026174;28;20468;-67
2023/04/04 10:49:51;;;;;;;1.50;1.40;;;8.10;78.90;;;;;;5019719;28;20859;-67
2023/04/04 10:52:21;;;;;;;3.03;1.50;;;8.10;74.80;;;;;;5027803;28;20502;-67
2023/04/04 10:54:54;;;;;;;6.13;1.73;;;8.20;74.00;;;;;;5019568;28;20467;-67
2023/04/04 10:57:23;;;;;;;1.80;1.47;;;8.30;80.40;;;;;;5026663;28;20499;-67
2023/04/04 11:00:00;;;;;;;3.40;1.60;;;8.40;64.90;;;;;;5027736;28;20521;-68
2023/04/04 11:02:48;;;;;;;2.60;1.67;;;8.50;63.00;;;;;;5017468;28;20975;-67
2023/04/04 11:05:21;;;;;;;2.97;1.70;;;8.60;60.90;;;;;;5031279;28;20482;-67
2023/04/04 11:07:54;;;;;;;1.60;1.50;;;8.70;60.10;;;;;;5022813;28;21016;-67
2023/04/04 11:10:37;;;;;;;1.83;1.30;;;8.80;60.70;;;;;;5031822;28;20489;-67
2023/04/04 11:13:11;;;;;;;3.30;1.73;;;8.80;51.90;;;;;;5023106;28;20474;-68
2023/04/04 11:15:53;;;;;;;1.93;1.60;;;8.80;51.30;;;;;;5030935;28;20502;-68
2023/04/04 11:18:22;;;;;;;2.60;1.13;;;8.80;53.00;;;;;;5013108;28;20507;-68
2023/04/04 11:21:02;;;;;;;1.40;1.30;;;8.80;51.00;;;;;;5022608;28;20545;-68
2023/04/04 11:23:59;;;;;;;2.53;1.30;;;8.80;49.80;;;;;;5011282;28;20882;-68
2023/04/04 11:26:38;;;;;;;1.47;1.30;;;8.80;51.60;;;;;;5015695;28;20475;-68
2023/04/04 11:29:07;;;;;;;2.73;1.60;;;9.00;52.50;;;;;;5027450;28;20482;-64
2023/04/04 11:31:39;;;;;;;1.70;1.20;;;9.10;45.50;;;;;;5010114;28;20471;-64
2023/04/04 11:34:09;;;;;;;1.50;1.30;;;9.20;46.80;;;;;;5012450;28;20467;-67
2023/04/04 11:36:51;;;;;;;1.20;1.10;;;9.40;47.60;;;;;;5027736;28;20478;-67
2023/04/04 11:39:27;;;;;;;3.53;1.30;;;9.60;51.00;;;;;;5021200;28;21026;-68
2023/04/04 11:42:02;;;;;;;1.20;1.10;;;9.80;48.00;;;;;;5016680;28;20467;-67
2023/04/04 11:44:32;;;;;;;1.63;1.00;;;9.80;47.70;;;;;;5030266;28;21258;-67
2023/04/04 11:47:10;;;;;;;2.40;1.27;;;9.90;47.50;;;;;;5023180;28;20538;-66
2023/04/04 11:49:40;;;;;;;1.57;1.30;;;9.90;43.90;;;;;;5025479;28;20486;-67
2023/04/04 11:52:09;;;;;;;1.03;0.90;;;9.80;45.30;;;;;;5021689;28;20518;-67
2023/04/04 11:54:38;;;;;;;1.37;1.10;;;9.80;44.70;;;;;;5029720;28;20553;-67
2023/04/04 11:57:08;;;;;;;1.93;1.50;;;9.70;44.60;;;;;;5025549;28;20479;-67
2023/04/04 11:59:40;;;;;;;2.30;1.33;;;9.60;41.40;;;;;;5026226;28;20475;-67
2023/04/04 12:02:09;;;;;;;1.67;1.20;;;9.60;41.20;;;;;;5010088;28;21038;-67
2023/04/04 12:04:37;;;;;;;1.43;1.33;;;9.70;44.80;;;;;;5030677;28;20514;-67
2023/04/04 12:07:09;;;;;;;1.73;1.40;;;9.90;43.90;;;;;;5017484;28;20541;-67
2023/04/04 12:09:38;;;;;;;1.50;1.40;;;10.10;41.80;;;;;;5006892;28;20865;-67
2023/04/04 12:12:08;;;;;;;2.27;1.30;;;10.20;39.30;;;;;;5006614;28;20467;-66
2023/04/04 12:14:36;;;;;;;1.40;0.97;;;10.30;40.10;;;;;;5003355;28;20467;-72
2023/04/04 12:17:04;;;;;;;1.93;1.10;;;10.50;38.90;;;;;;5019483;28;20476;-71
2023/04/04 12:19:37;;;;;;;1.67;1.37;;;10.70;41.00;;;;;;5019974;28;20490;-69
2023/04/04 12:22:06;;;;;;;1.07;1.07;;;10.80;39.20;;;;;;5018173;28;21054;-67
2023/04/04 12:24:35;;;;;;;1.53;1.33;;;10.90;37.20;;;;;;5016702;28;20467;-67
2023/04/04 12:27:03;;;;;;;1.40;1.30;;;10.90;37.90;;;;;;5023259;28;20862;-66
2023/04/04 12:29:35;;;;;;;1.50;1.40;;;11.00;36.40;;;;;;5007177;28;20487;-67
2023/04/04 12:32:04;;;;;;;1.57;1.47;;;11.10;35.70;;;;;;5005268;28;20478;-66
2023/04/04 12:34:34;;;;;;;1.20;1.10;;;11.20;34.40;;;;;;5012089;28;20466;-67
2023/04/04 12:37:03;;;;;;;1.57;1.23;;;11.20;32.90;;;;;;5017072;28;21878;-68
2023/04/04 12:39:31;;;;;;;5.33;1.70;;;11.20;33.80;;;;;;5008688;28;20490;-68
2023/04/04 12:42:02;;;;;;;1.90;1.50;;;11.20;32.80;;;;;;5026671;28;20971;-68
2023/04/04 12:44:31;;;;;;;2.80;1.37;;;11.30;34.70;;;;;;5018660;28;20479;-68
2023/04/04 12:47:03;;;;;;;3.53;1.60;;;11.40;36.20;;;;;;5025106;28;20471;-68
2023/04/04 12:49:39;;;;;;;2.40;1.83;;;11.60;36.90;;;;;;5026042;28;20487;-68
2023/04/04 12:52:16;;;;;;;2.93;1.80;;;11.80;36.30;;;;;;5017738;28;20463;-67
2023/04/04 12:54:45;;;;;;;3.40;1.40;;;12.10;35.60;;;;;;5026690;28;20989;-67
2023/04/04 12:57:19;;;;;;;2.00;1.77;;;12.20;35.60;;;;;;5020566;28;20503;-68
2023/04/04 12:59:48;;;;;;;1.50;1.30;;;12.20;31.10;;;;;;5026777;28;20480;-68
2023/04/04 13:02:19;;;;;;;1.97;1.50;;;12.10;33.40;;;;;;5020923;28;20479;-67
2023/04/04 13:04:48;;;;;;;1.40;1.30;;;12.20;34.30;;;;;;5012763;28;20470;-78
2023/04/04 13:07:27;;;;;;;1.40;1.30;;;12.20;34.70;;;;;;5021017;28;20473;-76